sensor_id;sensor_type;location;lat;lon;timestamp;P1;durP1;ratioP1;P2;durP2;ratioP2
19285;SDS011;9776;50.798;6.430;2023-05-08T00:00:08;8.05;;;6.05;;
19285;SDS011;9776;50.798;6.430;2023-05-08T00:02:35;7.65;;;6.03;;
19285;SDS011;9776;50.798;6.430;2023-05-08T00:05:01;8.40;;;6.03;;
19285;SDS011;9776;50.798;6.430;2023-05-08T00:07:28;8.23;;;6.22;;
19285;SDS011;9776;50.798;6.430;2023-05-08T00:09:56;8.30;;;5.90;;
19285;SDS011;9776;50.798;6.430;2023-05-08T00:12:23;8.27;;;6.18;;
19285;SDS011;9776;50.798;6.430;2023-05-08T00:14:50;7.65;;;6.38;;
19285;SDS011;9776;50.798;6.430;2023-05-08T00:17:16;8.52;;;6.97;;
19285;SDS011;9776;50.798;6.430;2023-05-08T00:19:43;8.80;;;6.80;;
19285;SDS011;9776;50.798;6.430;2023-05-08T00:22:10;7.88;;;6.38;;
19285;SDS011;9776;50.798;6.430;2023-05-08T00:24:36;8.00;;;5.95;;
19285;SDS011;9776;50.798;6.430;2023-05-08T00:27:04;8.48;;;6.47;;
19285;SDS011;9776;50.798;6.430;2023-05-08T00:29:32;7.82;;;6.38;;
19285;SDS011;9776;50.798;6.430;2023-05-08T00:31:58;7.20;;;6.20;;
19285;SDS011;9776;50.798;6.430;2023-05-08T00:34:25;9.07;;;6.57;;
19285;SDS011;9776;50.798;6.430;2023-05-08T00:36:52;8.57;;;6.78;;
19285;SDS011;9776;50.798;6.430;2023-05-08T00:39:19;9.77;;;7.60;;
19285;SDS011;9776;50.798;6.430;2023-05-08T00:41:45;9.80;;;6.80;;
19285;SDS011;9776;50.798;6.430;2023-05-08T00:44:13;10.57;;;7.82;;
19285;SDS011;9776;50.798;6.430;2023-05-08T00:46:40;9.48;;;7.28;;
19285;SDS011;9776;50.798;6.430;2023-05-08T00:49:07;9.93;;;7.70;;
19285;SDS011;9776;50.798;6.430;2023-05-08T00:51:37;9.73;;;7.03;;
19285;SDS011;9776;50.798;6.430;2023-05-08T00:54:04;8.48;;;6.95;;
19285;SDS011;9776;50.798;6.430;2023-05-08T00:56:31;8.38;;;6.85;;
19285;SDS011;9776;50.798;6.430;2023-05-08T00:59:00;8.27;;;7.18;;
19285;SDS011;9776;50.798;6.430;2023-05-08T01:01:30;8.00;;;6.88;;
19285;SDS011;9776;50.798;6.430;2023-05-08T01:03:59;9.00;;;7.20;;
19285;SDS011;9776;50.798;6.430;2023-05-08T01:06:25;11.90;;;7.07;;
19285;SDS011;9776;50.798;6.430;2023-05-08T01:08:52;9.43;;;7.18;;
19285;SDS011;9776;50.798;6.430;2023-05-08T01:11:21;8.70;;;7.05;;
19285;SDS011;9776;50.798;6.430;2023-05-08T01:13:56;10.80;;;7.30;;
19285;SDS011;9776;50.798;6.430;2023-05-08T01:16:34;9.05;;;7.13;;
19285;SDS011;9776;50.798;6.430;2023-05-08T01:19:11;8.65;;;7.30;;
19285;SDS011;9776;50.798;6.430;2023-05-08T01:21:53;8.98;;;7.30;;
19285;SDS011;9776;50.798;6.430;2023-05-08T01:24:40;9.18;;;7.32;;
19285;SDS011;9776;50.798;6.430;2023-05-08T01:27:35;10.13;;;7.32;;
19285;SDS011;9776;50.798;6.430;2023-05-08T01:30:15;7.75;;;6.93;;
19285;SDS011;9776;50.798;6.430;2023-05-08T01:33:00;9.75;;;7.30;;
19285;SDS011;9776;50.798;6.430;2023-05-08T01:35:33;10.85;;;7.35;;
19285;SDS011;9776;50.798;6.430;2023-05-08T01:38:05;9.75;;;7.78;;
19285;SDS011;9776;50.798;6.430;2023-05-08T01:40:38;8.80;;;7.10;;
19285;SDS011;9776;50.798;6.430;2023-05-08T01:43:13;9.52;;;7.45;;
19285;SDS011;9776;50.798;6.430;2023-05-08T01:45:49;9.93;;;7.00;;
19285;SDS011;9776;50.798;6.430;2023-05-08T01:48:21;9.75;;;7.53;;
19285;SDS011;9776;50.798;6.430;2023-05-08T01:50:54;11.85;;;7.82;;
19285;SDS011;9776;50.798;6.430;2023-05-08T01:53:27;8.48;;;6.90;;
19285;SDS011;9776;50.798;6.430;2023-05-08T01:55:56;7.63;;;6.68;;
19285;SDS011;9776;50.798;6.430;2023-05-08T01:58:26;9.15;;;6.57;;
19285;SDS011;9776;50.798;6.430;2023-05-08T02:00:56;9.45;;;6.55;;
19285;SDS011;9776;50.798;6.430;2023-05-08T02:03:26;8.10;;;6.55;;
19285;SDS011;9776;50.798;6.430;2023-05-08T02:05:56;11.13;;;6.55;;
19285;SDS011;9776;50.798;6.430;2023-05-08T02:08:25;6.70;;;6.00;;
19285;SDS011;9776;50.798;6.430;2023-05-08T02:10:54;8.68;;;6.88;;
19285;SDS011;9776;50.798;6.430;2023-05-08T02:13:22;9.25;;;6.45;;
19285;SDS011;9776;50.798;6.430;2023-05-08T02:15:52;10.25;;;7.35;;
19285;SDS011;9776;50.798;6.430;2023-05-08T02:18:20;11.40;;;7.47;;
19285;SDS011;9776;50.798;6.430;2023-05-08T02:20:51;9.30;;;7.43;;
19285;SDS011;9776;50.798;6.430;2023-05-08T02:23:21;9.32;;;7.22;;
19285;SDS011;9776;50.798;6.430;2023-05-08T02:25:50;9.73;;;7.80;;
19285;SDS011;9776;50.798;6.430;2023-05-08T02:28:19;10.32;;;7.72;;
19285;SDS011;9776;50.798;6.430;2023-05-08T02:30:47;9.43;;;7.82;;
19285;SDS011;9776;50.798;6.430;2023-05-08T02:33:16;11.02;;;7.75;;
19285;SDS011;9776;50.798;6.430;2023-05-08T02:35:45;9.93;;;7.55;;
19285;SDS011;9776;50.798;6.430;2023-05-08T02:38:16;12.23;;;7.32;;
19285;SDS011;9776;50.798;6.430;2023-05-08T02:40:45;12.30;;;7.80;;
19285;SDS011;9776;50.798;6.430;2023-05-08T02:43:14;10.65;;;8.18;;
19285;SDS011;9776;50.798;6.430;2023-05-08T02:45:44;10.90;;;8.52;;
19285;SDS011;9776;50.798;6.430;2023-05-08T02:48:19;12.20;;;8.10;;
19285;SDS011;9776;50.798;6.430;2023-05-08T02:50:53;13.90;;;9.52;;
19285;SDS011;9776;50.798;6.430;2023-05-08T02:53:29;11.07;;;8.38;;
19285;SDS011;9776;50.798;6.430;2023-05-08T02:56:01;11.90;;;9.10;;
19285;SDS011;9776;50.798;6.430;2023-05-08T02:58:34;12.90;;;9.48;;
19285;SDS011;9776;50.798;6.430;2023-05-08T03:01:10;11.23;;;9.10;;
19285;SDS011;9776;50.798;6.430;2023-05-08T03:03:44;13.88;;;8.82;;
19285;SDS011;9776;50.798;6.430;2023-05-08T03:06:15;11.85;;;8.95;;
19285;SDS011;9776;50.798;6.430;2023-05-08T03:08:48;12.15;;;8.68;;
19285;SDS011;9776;50.798;6.430;2023-05-08T03:11:17;12.85;;;9.60;;
19285;SDS011;9776;50.798;6.430;2023-05-08T03:13:47;11.93;;;8.90;;
19285;SDS011;9776;50.798;6.430;2023-05-08T03:16:17;12.18;;;9.07;;
19285;SDS011;9776;50.798;6.430;2023-05-08T03:18:48;11.85;;;9.00;;
19285;SDS011;9776;50.798;6.430;2023-05-08T03:21:18;11.38;;;9.40;;
19285;SDS011;9776;50.798;6.430;2023-05-08T03:23:46;10.65;;;9.05;;
19285;SDS011;9776;50.798;6.430;2023-05-08T03:26:16;13.20;;;9.52;;
19285;SDS011;9776;50.798;6.430;2023-05-08T03:28:45;11.05;;;8.60;;
19285;SDS011;9776;50.798;6.430;2023-05-08T03:31:13;10.13;;;8.25;;
19285;SDS011;9776;50.798;6.430;2023-05-08T03:33:44;12.50;;;8.60;;
19285;SDS011;9776;50.798;6.430;2023-05-08T03:36:13;11.40;;;8.70;;
19285;SDS011;9776;50.798;6.430;2023-05-08T03:38:40;12.73;;;8.88;;
19285;SDS011;9776;50.798;6.430;2023-05-08T03:41:08;10.98;;;8.23;;
19285;SDS011;9776;50.798;6.430;2023-05-08T03:43:36;10.32;;;8.18;;
19285;SDS011;9776;50.798;6.430;2023-05-08T03:46:03;11.82;;;8.32;;
19285;SDS011;9776;50.798;6.430;2023-05-08T03:48:30;10.13;;;7.93;;
19285;SDS011;9776;50.798;6.430;2023-05-08T03:50:59;8.43;;;7.28;;
19285;SDS011;9776;50.798;6.430;2023-05-08T03:53:27;9.43;;;7.85;;
19285;SDS011;9776;50.798;6.430;2023-05-08T03:55:55;9.50;;;7.90;;
19285;SDS011;9776;50.798;6.430;2023-05-08T03:58:25;10.18;;;7.70;;
19285;SDS011;9776;50.798;6.430;2023-05-08T04:01:00;10.65;;;7.03;;
19285;SDS011;9776;50.798;6.430;2023-05-08T04:03:37;9.60;;;8.00;;
19285;SDS011;9776;50.798;6.430;2023-05-08T04:06:16;9.85;;;8.23;;
19285;SDS011;9776;50.798;6.430;2023-05-08T04:08:54;9.32;;;7.85;;
19285;SDS011;9776;50.798;6.430;2023-05-08T04:11:29;10.73;;;7.88;;
19285;SDS011;9776;50.798;6.430;2023-05-08T04:14:03;10.32;;;8.13;;
19285;SDS011;9776;50.798;6.430;2023-05-08T04:16:31;10.57;;;8.73;;
19285;SDS011;9776;50.798;6.430;2023-05-08T04:19:06;9.63;;;8.02;;
19285;SDS011;9776;50.798;6.430;2023-05-08T04:21:38;10.98;;;8.13;;
19285;SDS011;9776;50.798;6.430;2023-05-08T04:24:09;12.65;;;8.82;;
19285;SDS011;9776;50.798;6.430;2023-05-08T04:26:38;11.57;;;8.60;;
19285;SDS011;9776;50.798;6.430;2023-05-08T04:29:08;11.13;;;8.80;;
19285;SDS011;9776;50.798;6.430;2023-05-08T04:31:35;10.30;;;8.18;;
19285;SDS011;9776;50.798;6.430;2023-05-08T04:34:03;11.50;;;8.93;;
19285;SDS011;9776;50.798;6.430;2023-05-08T04:36:30;13.32;;;8.77;;
19285;SDS011;9776;50.798;6.430;2023-05-08T04:38:57;12.38;;;8.35;;
19285;SDS011;9776;50.798;6.430;2023-05-08T04:41:24;10.70;;;8.30;;
19285;SDS011;9776;50.798;6.430;2023-05-08T04:43:51;11.20;;;8.55;;
19285;SDS011;9776;50.798;6.430;2023-05-08T04:46:21;14.32;;;10.02;;
19285;SDS011;9776;50.798;6.430;2023-05-08T04:48:48;16.05;;;10.43;;
19285;SDS011;9776;50.798;6.430;2023-05-08T04:51:15;12.48;;;9.98;;
19285;SDS011;9776;50.798;6.430;2023-05-08T04:53:41;13.80;;;10.55;;
19285;SDS011;9776;50.798;6.430;2023-05-08T04:56:08;14.32;;;11.02;;
19285;SDS011;9776;50.798;6.430;2023-05-08T04:58:35;15.82;;;11.20;;
19285;SDS011;9776;50.798;6.430;2023-05-08T05:01:01;14.57;;;10.63;;
19285;SDS011;9776;50.798;6.430;2023-05-08T05:03:30;15.07;;;11.15;;
19285;SDS011;9776;50.798;6.430;2023-05-08T05:05:57;14.48;;;11.30;;
19285;SDS011;9776;50.798;6.430;2023-05-08T05:08:23;15.43;;;11.68;;
19285;SDS011;9776;50.798;6.430;2023-05-08T05:10:50;14.50;;;11.02;;
19285;SDS011;9776;50.798;6.430;2023-05-08T05:13:17;15.82;;;11.13;;
19285;SDS011;9776;50.798;6.430;2023-05-08T05:15:44;14.38;;;11.40;;
19285;SDS011;9776;50.798;6.430;2023-05-08T05:18:11;15.63;;;11.90;;
19285;SDS011;9776;50.798;6.430;2023-05-08T05:20:39;18.52;;;14.45;;
19285;SDS011;9776;50.798;6.430;2023-05-08T05:23:06;15.88;;;11.90;;
19285;SDS011;9776;50.798;6.430;2023-05-08T05:25:33;14.63;;;11.15;;
19285;SDS011;9776;50.798;6.430;2023-05-08T05:28:00;15.82;;;11.40;;
19285;SDS011;9776;50.798;6.430;2023-05-08T05:30:27;15.23;;;10.82;;
19285;SDS011;9776;50.798;6.430;2023-05-08T05:32:53;13.40;;;10.70;;
19285;SDS011;9776;50.798;6.430;2023-05-08T05:35:20;15.77;;;11.10;;
19285;SDS011;9776;50.798;6.430;2023-05-08T05:37:48;17.65;;;12.35;;
19285;SDS011;9776;50.798;6.430;2023-05-08T05:40:15;15.40;;;10.93;;
19285;SDS011;9776;50.798;6.430;2023-05-08T05:42:41;15.48;;;10.77;;
19285;SDS011;9776;50.798;6.430;2023-05-08T05:45:13;15.60;;;11.55;;
19285;SDS011;9776;50.798;6.430;2023-05-08T05:47:42;15.65;;;11.10;;
19285;SDS011;9776;50.798;6.430;2023-05-08T05:50:10;17.20;;;12.23;;
19285;SDS011;9776;50.798;6.430;2023-05-08T05:52:36;16.13;;;12.23;;
19285;SDS011;9776;50.798;6.430;2023-05-08T05:55:05;16.13;;;11.60;;
19285;SDS011;9776;50.798;6.430;2023-05-08T05:57:32;16.15;;;11.68;;
19285;SDS011;9776;50.798;6.430;2023-05-08T05:59:59;15.98;;;10.93;;
19285;SDS011;9776;50.798;6.430;2023-05-08T06:02:25;14.48;;;9.43;;
19285;SDS011;9776;50.798;6.430;2023-05-08T06:04:52;11.63;;;9.40;;
19285;SDS011;9776;50.798;6.430;2023-05-08T06:07:18;11.27;;;8.10;;
19285;SDS011;9776;50.798;6.430;2023-05-08T06:09:45;10.95;;;7.43;;
19285;SDS011;9776;50.798;6.430;2023-05-08T06:12:13;11.80;;;7.28;;
19285;SDS011;9776;50.798;6.430;2023-05-08T06:14:40;8.20;;;6.88;;
19285;SDS011;9776;50.798;6.430;2023-05-08T06:17:07;9.00;;;6.60;;
19285;SDS011;9776;50.798;6.430;2023-05-08T06:19:33;8.35;;;5.95;;
19285;SDS011;9776;50.798;6.430;2023-05-08T06:22:00;9.82;;;5.53;;
19285;SDS011;9776;50.798;6.430;2023-05-08T06:24:28;8.60;;;5.50;;
19285;SDS011;9776;50.798;6.430;2023-05-08T06:26:54;6.28;;;4.93;;
19285;SDS011;9776;50.798;6.430;2023-05-08T06:29:22;7.03;;;5.63;;
19285;SDS011;9776;50.798;6.430;2023-05-08T06:31:49;6.63;;;5.38;;
19285;SDS011;9776;50.798;6.430;2023-05-08T06:34:16;7.13;;;5.32;;
19285;SDS011;9776;50.798;6.430;2023-05-08T06:36:42;7.90;;;5.72;;
19285;SDS011;9776;50.798;6.430;2023-05-08T06:39:09;8.30;;;6.03;;
19285;SDS011;9776;50.798;6.430;2023-05-08T06:41:36;8.98;;;6.95;;
19285;SDS011;9776;50.798;6.430;2023-05-08T06:44:02;10.35;;;6.97;;
19285;SDS011;9776;50.798;6.430;2023-05-08T06:46:31;8.23;;;6.53;;
19285;SDS011;9776;50.798;6.430;2023-05-08T06:48:57;9.50;;;7.25;;
19285;SDS011;9776;50.798;6.430;2023-05-08T06:51:24;9.82;;;7.30;;
19285;SDS011;9776;50.798;6.430;2023-05-08T06:53:51;8.57;;;6.57;;
19285;SDS011;9776;50.798;6.430;2023-05-08T06:56:17;7.22;;;5.43;;
19285;SDS011;9776;50.798;6.430;2023-05-08T06:58:44;9.07;;;6.47;;
19285;SDS011;9776;50.798;6.430;2023-05-08T07:01:10;5.65;;;4.45;;
19285;SDS011;9776;50.798;6.430;2023-05-08T07:03:40;4.93;;;3.65;;
19285;SDS011;9776;50.798;6.430;2023-05-08T07:06:06;5.30;;;3.90;;
19285;SDS011;9776;50.798;6.430;2023-05-08T07:08:34;6.80;;;4.85;;
19285;SDS011;9776;50.798;6.430;2023-05-08T07:11:01;5.10;;;4.10;;
19285;SDS011;9776;50.798;6.430;2023-05-08T07:13:28;6.18;;;4.10;;
19285;SDS011;9776;50.798;6.430;2023-05-08T07:15:56;8.77;;;4.03;;
19285;SDS011;9776;50.798;6.430;2023-05-08T07:18:22;4.55;;;3.75;;
19285;SDS011;9776;50.798;6.430;2023-05-08T07:20:50;4.57;;;3.40;;
19285;SDS011;9776;50.798;6.430;2023-05-08T07:23:17;4.32;;;3.40;;
19285;SDS011;9776;50.798;6.430;2023-05-08T07:25:44;5.47;;;3.72;;
19285;SDS011;9776;50.798;6.430;2023-05-08T07:28:10;4.72;;;3.55;;
19285;SDS011;9776;50.798;6.430;2023-05-08T07:30:37;4.68;;;3.30;;
19285;SDS011;9776;50.798;6.430;2023-05-08T07:33:04;4.43;;;3.47;;
19285;SDS011;9776;50.798;6.430;2023-05-08T07:35:30;4.97;;;3.83;;
19285;SDS011;9776;50.798;6.430;2023-05-08T07:37:59;5.38;;;3.78;;
19285;SDS011;9776;50.798;6.430;2023-05-08T07:40:25;5.70;;;4.30;;
19285;SDS011;9776;50.798;6.430;2023-05-08T07:42:52;9.25;;;4.10;;
19285;SDS011;9776;50.798;6.430;2023-05-08T07:45:19;5.28;;;3.90;;
19285;SDS011;9776;50.798;6.430;2023-05-08T07:47:49;8.80;;;4.70;;
19285;SDS011;9776;50.798;6.430;2023-05-08T07:50:17;4.70;;;3.55;;
19285;SDS011;9776;50.798;6.430;2023-05-08T07:52:44;9.68;;;3.42;;
19285;SDS011;9776;50.798;6.430;2023-05-08T07:55:12;5.82;;;3.70;;
19285;SDS011;9776;50.798;6.430;2023-05-08T07:57:39;5.28;;;4.05;;
19285;SDS011;9776;50.798;6.430;2023-05-08T08:00:07;4.95;;;3.90;;
19285;SDS011;9776;50.798;6.430;2023-05-08T08:02:35;5.43;;;4.13;;
19285;SDS011;9776;50.798;6.430;2023-05-08T08:05:02;4.70;;;3.47;;
19285;SDS011;9776;50.798;6.430;2023-05-08T08:07:29;6.68;;;5.32;;
19285;SDS011;9776;50.798;6.430;2023-05-08T08:09:56;10.77;;;8.25;;
19285;SDS011;9776;50.798;6.430;2023-05-08T08:12:24;8.38;;;7.15;;
19285;SDS011;9776;50.798;6.430;2023-05-08T08:14:51;8.60;;;7.10;;
19285;SDS011;9776;50.798;6.430;2023-05-08T08:17:18;10.63;;;8.77;;
19285;SDS011;9776;50.798;6.430;2023-05-08T08:19:44;14.95;;;12.10;;
19285;SDS011;9776;50.798;6.430;2023-05-08T08:22:11;18.27;;;13.40;;
19285;SDS011;9776;50.798;6.430;2023-05-08T08:24:37;19.45;;;15.40;;
19285;SDS011;9776;50.798;6.430;2023-05-08T08:27:04;16.33;;;12.02;;
19285;SDS011;9776;50.798;6.430;2023-05-08T08:29:32;13.07;;;10.70;;
19285;SDS011;9776;50.798;6.430;2023-05-08T08:31:59;14.93;;;11.77;;
19285;SDS011;9776;50.798;6.430;2023-05-08T08:34:27;17.48;;;13.63;;
19285;SDS011;9776;50.798;6.430;2023-05-08T08:36:53;19.13;;;14.93;;
19285;SDS011;9776;50.798;6.430;2023-05-08T08:39:20;18.17;;;13.95;;
19285;SDS011;9776;50.798;6.430;2023-05-08T08:41:47;16.90;;;13.48;;
19285;SDS011;9776;50.798;6.430;2023-05-08T08:44:13;16.75;;;13.02;;
19285;SDS011;9776;50.798;6.430;2023-05-08T08:46:43;14.65;;;11.95;;
19285;SDS011;9776;50.798;6.430;2023-05-08T08:49:17;18.30;;;12.45;;
19285;SDS011;9776;50.798;6.430;2023-05-08T08:51:45;12.93;;;11.18;;
19285;SDS011;9776;50.798;6.430;2023-05-08T08:54:19;13.05;;;10.48;;
19285;SDS011;9776;50.798;6.430;2023-05-08T08:56:49;10.10;;;8.68;;
19285;SDS011;9776;50.798;6.430;2023-05-08T08:59:17;9.13;;;7.30;;
19285;SDS011;9776;50.798;6.430;2023-05-08T09:01:46;8.82;;;7.93;;
19285;SDS011;9776;50.798;6.430;2023-05-08T09:04:16;14.07;;;11.18;;
19285;SDS011;9776;50.798;6.430;2023-05-08T09:06:43;14.52;;;11.52;;
19285;SDS011;9776;50.798;6.430;2023-05-08T09:09:10;14.48;;;11.80;;
19285;SDS011;9776;50.798;6.430;2023-05-08T09:11:37;13.15;;;10.32;;
19285;SDS011;9776;50.798;6.430;2023-05-08T09:14:05;9.85;;;7.78;;
19285;SDS011;9776;50.798;6.430;2023-05-08T09:16:32;9.65;;;7.80;;
19285;SDS011;9776;50.798;6.430;2023-05-08T09:19:01;9.95;;;6.93;;
19285;SDS011;9776;50.798;6.430;2023-05-08T09:21:28;6.70;;;5.85;;
19285;SDS011;9776;50.798;6.430;2023-05-08T09:23:56;10.25;;;7.43;;
19285;SDS011;9776;50.798;6.430;2023-05-08T09:26:28;8.93;;;7.68;;
19285;SDS011;9776;50.798;6.430;2023-05-08T09:29:10;7.85;;;5.80;;
19285;SDS011;9776;50.798;6.430;2023-05-08T09:31:38;7.07;;;5.53;;
19285;SDS011;9776;50.798;6.430;2023-05-08T09:34:07;6.95;;;5.78;;
19285;SDS011;9776;50.798;6.430;2023-05-08T09:36:34;5.97;;;5.30;;
19285;SDS011;9776;50.798;6.430;2023-05-08T09:39:01;5.55;;;4.90;;
19285;SDS011;9776;50.798;6.430;2023-05-08T09:41:28;9.50;;;4.50;;
19285;SDS011;9776;50.798;6.430;2023-05-08T09:44:02;5.20;;;4.40;;
19285;SDS011;9776;50.798;6.430;2023-05-08T09:46:29;6.03;;;4.75;;
19285;SDS011;9776;50.798;6.430;2023-05-08T09:48:58;5.85;;;5.07;;
19285;SDS011;9776;50.798;6.430;2023-05-08T09:51:28;7.47;;;5.05;;
19285;SDS011;9776;50.798;6.430;2023-05-08T09:53:56;8.35;;;5.55;;
19285;SDS011;9776;50.798;6.430;2023-05-08T09:56:28;6.43;;;5.13;;
19285;SDS011;9776;50.798;6.430;2023-05-08T09:58:55;7.47;;;5.47;;
19285;SDS011;9776;50.798;6.430;2023-05-08T10:01:29;8.63;;;6.50;;
19285;SDS011;9776;50.798;6.430;2023-05-08T10:03:56;8.07;;;6.82;;
19285;SDS011;9776;50.798;6.430;2023-05-08T10:06:24;9.20;;;7.13;;
19285;SDS011;9776;50.798;6.430;2023-05-08T10:09:12;8.80;;;7.10;;
19285;SDS011;9776;50.798;6.430;2023-05-08T10:11:40;8.60;;;7.13;;
19285;SDS011;9776;50.798;6.430;2023-05-08T10:14:17;10.20;;;7.47;;
19285;SDS011;9776;50.798;6.430;2023-05-08T10:16:46;9.43;;;7.60;;
19285;SDS011;9776;50.798;6.430;2023-05-08T10:19:14;9.35;;;7.63;;
19285;SDS011;9776;50.798;6.430;2023-05-08T10:21:43;8.88;;;6.82;;
19285;SDS011;9776;50.798;6.430;2023-05-08T10:24:15;9.23;;;7.07;;
19285;SDS011;9776;50.798;6.430;2023-05-08T10:26:43;8.65;;;7.20;;
19285;SDS011;9776;50.798;6.430;2023-05-08T10:29:20;8.35;;;7.20;;
19285;SDS011;9776;50.798;6.430;2023-05-08T10:31:51;8.63;;;7.60;;
19285;SDS011;9776;50.798;6.430;2023-05-08T10:34:23;7.70;;;6.90;;
19285;SDS011;9776;50.798;6.430;2023-05-08T10:36:56;8.65;;;7.40;;
19285;SDS011;9776;50.798;6.430;2023-05-08T10:39:28;9.15;;;7.65;;
19285;SDS011;9776;50.798;6.430;2023-05-08T10:41:57;8.95;;;7.90;;
19285;SDS011;9776;50.798;6.430;2023-05-08T10:44:24;10.15;;;8.23;;
19285;SDS011;9776;50.798;6.430;2023-05-08T10:46:54;11.52;;;8.63;;
19285;SDS011;9776;50.798;6.430;2023-05-08T10:49:29;11.43;;;8.70;;
19285;SDS011;9776;50.798;6.430;2023-05-08T10:52:08;12.35;;;8.00;;
19285;SDS011;9776;50.798;6.430;2023-05-08T10:54:50;9.95;;;7.32;;
19285;SDS011;9776;50.798;6.430;2023-05-08T10:57:34;8.90;;;6.80;;
19285;SDS011;9776;50.798;6.430;2023-05-08T11:00:01;7.75;;;5.72;;
19285;SDS011;9776;50.798;6.430;2023-05-08T11:02:28;8.05;;;5.90;;
19285;SDS011;9776;50.798;6.430;2023-05-08T11:05:12;7.60;;;5.80;;
19285;SDS011;9776;50.798;6.430;2023-05-08T11:07:53;7.88;;;5.60;;
19285;SDS011;9776;50.798;6.430;2023-05-08T11:10:22;8.02;;;5.72;;
19285;SDS011;9776;50.798;6.430;2023-05-08T11:12:56;9.20;;;5.95;;
19285;SDS011;9776;50.798;6.430;2023-05-08T11:15:34;7.18;;;5.68;;
19285;SDS011;9776;50.798;6.430;2023-05-08T11:18:02;8.60;;;5.30;;
19285;SDS011;9776;50.798;6.430;2023-05-08T11:20:36;6.28;;;5.13;;
19285;SDS011;9776;50.798;6.430;2023-05-08T11:25:58;6.70;;;5.03;;
19285;SDS011;9776;50.798;6.430;2023-05-08T11:28:26;5.65;;;4.57;;
19285;SDS011;9776;50.798;6.430;2023-05-08T11:30:53;5.90;;;5.07;;
19285;SDS011;9776;50.798;6.430;2023-05-08T11:33:21;6.38;;;5.10;;
19285;SDS011;9776;50.798;6.430;2023-05-08T11:35:52;5.90;;;4.68;;
19285;SDS011;9776;50.798;6.430;2023-05-08T11:38:20;5.82;;;4.47;;
19285;SDS011;9776;50.798;6.430;2023-05-08T11:40:57;7.32;;;5.22;;
19285;SDS011;9776;50.798;6.430;2023-05-08T11:43:39;5.22;;;4.47;;
19285;SDS011;9776;50.798;6.430;2023-05-08T11:46:39;5.55;;;4.60;;
19285;SDS011;9776;50.798;6.430;2023-05-08T11:49:11;6.80;;;5.65;;
19285;SDS011;9776;50.798;6.430;2023-05-08T11:51:40;6.95;;;5.10;;
19285;SDS011;9776;50.798;6.430;2023-05-08T11:54:09;6.45;;;4.95;;
19285;SDS011;9776;50.798;6.430;2023-05-08T11:56:39;7.78;;;5.28;;
19285;SDS011;9776;50.798;6.430;2023-05-08T11:59:06;7.03;;;5.25;;
19285;SDS011;9776;50.798;6.430;2023-05-08T12:01:33;7.68;;;5.15;;
19285;SDS011;9776;50.798;6.430;2023-05-08T12:04:04;6.40;;;5.07;;
19285;SDS011;9776;50.798;6.430;2023-05-08T12:06:32;6.88;;;4.80;;
19285;SDS011;9776;50.798;6.430;2023-05-08T12:08:59;6.72;;;5.05;;
19285;SDS011;9776;50.798;6.430;2023-05-08T12:11:28;6.63;;;4.97;;
19285;SDS011;9776;50.798;6.430;2023-05-08T12:13:56;4.75;;;4.22;;
19285;SDS011;9776;50.798;6.430;2023-05-08T12:16:23;5.57;;;4.82;;
19285;SDS011;9776;50.798;6.430;2023-05-08T12:18:50;6.15;;;4.90;;
19285;SDS011;9776;50.798;6.430;2023-05-08T12:21:18;5.35;;;4.35;;
19285;SDS011;9776;50.798;6.430;2023-05-08T12:23:46;6.57;;;4.63;;
19285;SDS011;9776;50.798;6.430;2023-05-08T12:26:13;5.82;;;4.20;;
19285;SDS011;9776;50.798;6.430;2023-05-08T12:28:42;6.35;;;4.88;;
19285;SDS011;9776;50.798;6.430;2023-05-08T12:31:11;5.53;;;4.63;;
19285;SDS011;9776;50.798;6.430;2023-05-08T12:33:38;5.05;;;4.25;;
19285;SDS011;9776;50.798;6.430;2023-05-08T12:36:05;5.85;;;4.35;;
19285;SDS011;9776;50.798;6.430;2023-05-08T12:38:31;7.10;;;4.57;;
19285;SDS011;9776;50.798;6.430;2023-05-08T12:40:59;5.20;;;4.10;;
19285;SDS011;9776;50.798;6.430;2023-05-08T12:43:31;5.10;;;4.60;;
19285;SDS011;9776;50.798;6.430;2023-05-08T12:45:59;6.47;;;4.72;;
19285;SDS011;9776;50.798;6.430;2023-05-08T12:48:28;5.40;;;4.57;;
19285;SDS011;9776;50.798;6.430;2023-05-08T12:51:00;6.50;;;5.05;;
19285;SDS011;9776;50.798;6.430;2023-05-08T12:53:29;7.05;;;4.72;;
19285;SDS011;9776;50.798;6.430;2023-05-08T12:55:57;5.40;;;4.82;;
19285;SDS011;9776;50.798;6.430;2023-05-08T12:58:28;5.88;;;4.70;;
19285;SDS011;9776;50.798;6.430;2023-05-08T13:01:02;6.30;;;5.18;;
19285;SDS011;9776;50.798;6.430;2023-05-08T13:03:32;5.63;;;4.72;;
19285;SDS011;9776;50.798;6.430;2023-05-08T13:05:59;6.78;;;4.90;;
19285;SDS011;9776;50.798;6.430;2023-05-08T13:08:29;4.93;;;4.35;;
19285;SDS011;9776;50.798;6.430;2023-05-08T13:10:57;6.13;;;4.70;;
19285;SDS011;9776;50.798;6.430;2023-05-08T13:13:25;6.30;;;4.43;;
19285;SDS011;9776;50.798;6.430;2023-05-08T13:15:52;8.15;;;5.05;;
19285;SDS011;9776;50.798;6.430;2023-05-08T13:18:20;7.28;;;5.88;;
19285;SDS011;9776;50.798;6.430;2023-05-08T13:20:51;7.70;;;5.55;;
19285;SDS011;9776;50.798;6.430;2023-05-08T13:23:18;7.55;;;5.07;;
19285;SDS011;9776;50.798;6.430;2023-05-08T13:25:44;11.20;;;7.13;;
19285;SDS011;9776;50.798;6.430;2023-05-08T13:28:11;9.00;;;6.28;;
19285;SDS011;9776;50.798;6.430;2023-05-08T13:30:37;9.20;;;6.70;;
19285;SDS011;9776;50.798;6.430;2023-05-08T13:33:04;13.13;;;7.80;;
19285;SDS011;9776;50.798;6.430;2023-05-08T13:35:31;10.00;;;7.90;;
19285;SDS011;9776;50.798;6.430;2023-05-08T13:38:00;12.27;;;8.23;;
19285;SDS011;9776;50.798;6.430;2023-05-08T13:40:26;10.50;;;8.13;;
19285;SDS011;9776;50.798;6.430;2023-05-08T13:42:53;11.57;;;8.40;;
19285;SDS011;9776;50.798;6.430;2023-05-08T13:45:20;11.27;;;8.25;;
19285;SDS011;9776;50.798;6.430;2023-05-08T13:47:47;15.82;;;14.05;;
19285;SDS011;9776;50.798;6.430;2023-05-08T13:50:15;13.55;;;10.02;;
19285;SDS011;9776;50.798;6.430;2023-05-08T13:52:43;16.05;;;11.52;;
19285;SDS011;9776;50.798;6.430;2023-05-08T13:55:11;23.50;;;17.05;;
19285;SDS011;9776;50.798;6.430;2023-05-08T13:57:39;31.08;;;23.00;;
19285;SDS011;9776;50.798;6.430;2023-05-08T14:00:06;13.02;;;10.82;;
19285;SDS011;9776;50.798;6.430;2023-05-08T14:02:34;12.60;;;9.80;;
19285;SDS011;9776;50.798;6.430;2023-05-08T14:05:02;10.55;;;8.52;;
19285;SDS011;9776;50.798;6.430;2023-05-08T14:07:28;10.23;;;8.27;;
19285;SDS011;9776;50.798;6.430;2023-05-08T14:09:55;11.40;;;9.07;;
19285;SDS011;9776;50.798;6.430;2023-05-08T14:12:23;11.57;;;8.50;;
19285;SDS011;9776;50.798;6.430;2023-05-08T14:14:50;10.85;;;8.65;;
19285;SDS011;9776;50.798;6.430;2023-05-08T14:17:16;11.85;;;7.78;;
19285;SDS011;9776;50.798;6.430;2023-05-08T14:19:43;10.25;;;8.30;;
19285;SDS011;9776;50.798;6.430;2023-05-08T14:22:10;9.95;;;8.10;;
19285;SDS011;9776;50.798;6.430;2023-05-08T14:24:36;9.88;;;7.72;;
19285;SDS011;9776;50.798;6.430;2023-05-08T14:27:03;9.55;;;7.82;;
19285;SDS011;9776;50.798;6.430;2023-05-08T14:29:31;9.27;;;7.63;;
19285;SDS011;9776;50.798;6.430;2023-05-08T14:31:58;9.25;;;7.50;;
19285;SDS011;9776;50.798;6.430;2023-05-08T14:34:24;9.65;;;7.55;;
19285;SDS011;9776;50.798;6.430;2023-05-08T14:36:51;8.50;;;7.00;;
19285;SDS011;9776;50.798;6.430;2023-05-08T14:39:18;8.32;;;6.82;;
19285;SDS011;9776;50.798;6.430;2023-05-08T14:41:44;7.32;;;6.13;;
19285;SDS011;9776;50.798;6.430;2023-05-08T14:44:11;9.95;;;6.97;;
19285;SDS011;9776;50.798;6.430;2023-05-08T14:46:39;8.32;;;6.15;;
19285;SDS011;9776;50.798;6.430;2023-05-08T14:49:06;10.80;;;6.40;;
19285;SDS011;9776;50.798;6.430;2023-05-08T14:51:32;8.77;;;6.43;;
19285;SDS011;9776;50.798;6.430;2023-05-08T14:53:59;6.95;;;5.35;;
19285;SDS011;9776;50.798;6.430;2023-05-08T14:56:25;8.32;;;6.15;;
19285;SDS011;9776;50.798;6.430;2023-05-08T14:58:52;7.38;;;5.50;;
19285;SDS011;9776;50.798;6.430;2023-05-08T15:01:19;6.90;;;5.32;;
19285;SDS011;9776;50.798;6.430;2023-05-08T15:03:47;10.18;;;6.15;;
19285;SDS011;9776;50.798;6.430;2023-05-08T15:06:17;8.80;;;5.60;;